Time;durP1;ratioP1;P1;durP2;ratioP2;P2;SDS_P1;SDS_P2;PMS_P1;PMS_P2;Temp;Humidity;BMP_temperature;BMP_pressure;BME280_temperature;BME280_humidity;BME280_pressure;Samples;Min_cycle;Max_cycle;Signal;HPM_P1;HPM_P2
2022/12/26 00:01:10;;;;;;;25.95;13.93;;;;;;;4.75;100.00;100232.06;5006835;28;20406;-77
2022/12/26 00:03:37;;;;;;;37.10;16.42;;;;;;;4.83;100.00;100245.47;4973377;28;20061;-77
2022/12/26 00:06:02;;;;;;;;;;;;;;;4.86;100.00;100245.19;4989609;28;20041;-77
2022/12/26 00:08:28;;;;;;;31.83;13.88;;;;;;;4.77;100.00;100228.31;5005839;28;19976;-77
2022/12/26 00:10:53;;;;;;;35.65;13.35;;;;;;;4.81;100.00;100231.53;4992338;28;20021;-77
2022/12/26 00:13:18;;;;;;;46.33;16.83;;;;;;;4.80;100.00;100232.50;5005515;28;20041;-77
2022/12/26 00:15:44;;;;;;;33.03;14.40;;;;;;;4.81;100.00;100228.88;4971532;28;20035;-77
2022/12/26 00:18:09;;;;;;;44.30;17.00;;;;;;;4.79;100.00;100222.91;5006996;28;20041;-76
2022/12/26 00:20:34;;;;;;;74.07;21.27;;;;;;;4.73;100.00;100212.84;4988923;28;20034;-76
2022/12/26 00:23:00;;;;;;;38.50;16.83;;;;;;;4.80;100.00;100227.19;4973134;28;20549;-75
2022/12/26 00:25:25;;;;;;;191.90;32.60;;;;;;;4.77;100.00;100222.19;4972924;28;20883;-75
2022/12/26 00:27:51;;;;;;;35.83;15.45;;;;;;;4.77;100.00;100223.03;5006574;28;20400;-75
2022/12/26 00:30:16;;;;;;;40.55;15.52;;;;;;;4.76;100.00;100224.00;5005345;28;20360;-73
2022/12/26 00:32:42;;;;;;;50.50;16.53;;;;;;;4.78;100.00;100227.34;4993738;28;20410;-73
2022/12/26 00:35:07;;;;;;;98.87;23.37;;;;;;;4.74;100.00;100211.91;4988874;28;20754;-75
2022/12/26 00:37:32;;;;;;;50.77;18.30;;;;;;;4.75;100.00;100210.91;5006704;28;20026;-75
2022/12/26 00:39:58;;;;;;;60.37;19.47;;;;;;;4.72;100.00;100203.28;4989094;28;20765;-75
2022/12/26 00:42:24;;;;;;;75.75;23.35;;;;;;;4.69;100.00;100207.03;4972599;28;20041;-74
2022/12/26 00:44:49;;;;;;;50.93;16.47;;;;;;;4.67;100.00;100198.38;4989098;28;20030;-75
2022/12/26 00:47:15;;;;;;;102.97;24.83;;;;;;;4.69;100.00;100192.97;4988928;28;20494;-77
2022/12/26 00:49:40;;;;;;;48.70;17.63;;;;;;;4.73;100.00;100197.00;4988925;28;20037;-77
2022/12/26 00:52:05;;;;;;;41.87;16.70;;;;;;;4.78;100.00;100208.84;5020104;23;20099;-73
2022/12/26 00:54:31;;;;;;;64.80;19.17;;;;;;;4.79;100.00;100214.97;4972580;28;20053;-72
2022/12/26 00:56:56;;;;;;;174.60;30.60;;;;;;;4.71;100.00;100201.59;4998154;28;20030;-74
2022/12/26 00:59:21;;;;;;;44.63;18.53;;;;;;;4.72;100.00;100205.91;5006384;28;20069;-75
2022/12/26 01:01:47;;;;;;;42.90;17.60;;;;;;;4.73;100.00;100205.78;4988274;28;20041;-74
2022/12/26 01:04:12;;;;;;;48.43;17.13;;;;;;;4.74;100.00;100212.72;5006168;28;20050;-73
2022/12/26 01:06:37;;;;;;;61.90;19.80;;;;;;;4.75;100.00;100210.91;4988438;28;20049;-74
2022/12/26 01:09:03;;;;;;;46.13;18.50;;;;;;;4.72;100.00;100209.38;5006533;28;20033;-74
2022/12/26 01:11:40;;;;;;;44.77;17.33;;;;;;;4.72;100.00;100224.41;5005648;28;20407;-73
2022/12/26 01:14:11;;;;;;;107.95;21.02;;;;;;;4.67;100.00;100214.25;5005928;28;20288;-72
2022/12/26 01:16:38;;;;;;;86.43;20.30;;;;;;;4.72;100.00;100213.84;4993759;28;20148;-74
2022/12/26 01:19:04;;;;;;;46.75;17.45;;;;;;;4.71;100.00;100215.66;5005968;28;20041;-73
2022/12/26 01:21:29;;;;;;;114.25;23.92;;;;;;;4.70;100.00;100219.25;5004784;28;20084;-74
2022/12/26 01:23:54;;;;;;;89.67;19.60;;;;;;;4.70;100.00;100215.78;5005795;28;20041;-73
2022/12/26 01:26:20;;;;;;;129.48;21.30;;;;;;;4.67;100.00;100222.19;4994234;28;20044;-73
2022/12/26 01:28:49;;;;;;;194.18;30.77;;;;;;;4.70;100.00;100218.44;5009193;28;20017;-73
2022/12/26 01:31:14;;;;;;;;;;;;;;;4.68;100.00;100212.44;5009716;28;20040;-74
2022/12/26 01:33:39;;;;;;;59.33;20.52;;;;;;;4.64;100.00;100202.16;5009477;28;19913;-73
2022/12/26 01:36:05;;;;;;;56.97;18.53;;;;;;;4.67;100.00;100208.13;4993281;28;20026;-73
2022/12/26 01:38:30;;;;;;;77.25;20.95;;;;;;;4.68;100.00;100213.28;5009583;28;20561;-73
2022/12/26 01:43:47;;;;;;;58.45;18.95;;;;;;;4.65;100.00;100209.09;5006850;28;20045;-72
2022/12/26 01:46:13;;;;;;;61.60;21.15;;;;;;;4.67;100.00;100205.50;4991708;28;20037;-73
2022/12/26 01:48:38;;;;;;;107.28;25.50;;;;;;;4.68;100.00;100212.44;5009172;28;20032;-72
2022/12/26 01:51:05;;;;;;;68.37;21.10;;;;;;;4.67;100.00;100210.78;4997232;28;20038;-72
2022/12/26 01:53:40;;;;;;;70.32;20.63;;;;;;;4.67;100.00;100226.66;5008865;28;20072;-72
2022/12/26 01:56:10;;;;;;;71.65;20.17;;;;;;;4.68;100.00;100221.19;5005354;28;20500;-74
2022/12/26 01:58:40;;;;;;;59.13;19.02;;;;;;;4.68;100.00;100223.84;4997397;28;20394;-73
2022/12/26 02:01:08;;;;;;;64.05;18.80;;;;;;;4.75;100.00;100224.13;4991342;28;20045;-73
2022/12/26 02:06:21;;;;;;;48.40;16.13;;;;;;;4.82;100.00;100235.84;5008897;28;20038;-73
2022/12/26 02:08:46;;;;;;;68.55;17.92;;;;;;;4.83;100.00;100230.41;4989678;28;20026;-72
2022/12/26 02:11:32;;;;;;;62.75;18.40;;;;;;;4.85;100.00;100231.13;4990981;28;20034;-73
2022/12/26 02:13:58;;;;;;;55.67;17.65;;;;;;;4.85;100.00;100225.84;4983345;28;20033;-73
2022/12/26 02:16:24;;;;;;;63.28;19.80;;;;;;;4.86;100.00;100226.66;5008469;28;20037;-74
2022/12/26 02:18:50;;;;;;;60.97;20.60;;;;;;;4.86;100.00;100219.56;5008740;28;20573;-73
2022/12/26 02:21:26;;;;;;;110.60;22.15;;;;;;;4.85;100.00;100225.00;4993616;28;20112;-75
2022/12/26 02:24:04;;;;;;;57.97;18.92;;;;;;;4.91;100.00;100224.44;4999377;28;20114;-73
2022/12/26 02:26:55;;;;;;;61.25;19.98;;;;;;;4.89;100.00;100217.59;5008544;28;20062;-74
2022/12/26 02:29:33;;;;;;;130.93;24.50;;;;;;;4.90;100.00;100221.94;5003827;28;20049;-73
2022/12/26 02:32:28;;;;;;;142.30;26.00;;;;;;;4.88;100.00;100211.50;5003363;28;20072;-73
2022/12/26 02:35:04;;;;;;;60.73;18.47;;;;;;;4.93;100.00;100211.06;4990079;28;20040;-71
2022/12/26 02:38:04;;;;;;;64.72;19.17;;;;;;;4.92;100.00;100218.19;5006669;28;20280;-73
2022/12/26 02:40:32;;;;;;;67.93;19.23;;;;;;;4.94;100.00;100215.38;5007657;28;20049;-73
2022/12/26 02:43:00;;;;;;;62.92;17.80;;;;;;;4.93;100.00;100206.63;4986649;28;20053;-74
2022/12/26 02:48:39;;;;;;;65.68;18.20;;;;;;;4.98;100.00;100203.56;5005225;28;20077;-73
2022/12/26 03:14:43;;;;;;;74.50;17.80;;;;;;;4.96;100.00;100216.06;5006472;28;20792;-73
2022/12/26 03:17:20;;;;;;;81.25;19.35;;;;;;;4.95;100.00;100214.41;4989611;28;20038;-74
2022/12/26 03:20:04;;;;;;;70.78;17.02;;;;;;;4.98;100.00;100214.13;5005538;28;20913;-71
2022/12/26 03:22:42;;;;;;;72.95;17.83;;;;;;;4.96;100.00;100224.00;4989245;28;20041;-73
2022/12/26 03:27:58;;;;;;;85.38;18.10;;;;;;;5.03;100.00;100241.00;5002219;28;20108;-74
2022/12/26 03:35:52;;;;;;;68.72;15.65;;;;;;;5.01;100.00;100240.31;5006335;28;20447;-74
2022/12/26 03:38:24;;;;;;;47.22;14.73;;;;;;;5.00;100.00;100234.19;4992408;28;20076;-73
2022/12/26 04:19:26;;;;;;;60.75;19.33;;;;;;;5.18;100.00;100252.03;4985565;28;20061;-73
2022/12/26 04:44:41;;;;;;;101.25;20.58;;;;;;;5.29;100.00;100235.97;5003428;28;20084;-72
2022/12/26 04:47:06;;;;;;;82.97;20.35;;;;;;;5.33;100.00;100240.03;4988131;28;20487;-73
2022/12/26 04:52:53;;;;;;;156.80;25.48;;;;;;;5.31;100.00;100238.50;5005352;28;20117;-73
2022/12/26 04:55:15;;;;;;;110.47;24.50;;;;;;;5.32;100.00;100238.34;4981070;28;20052;-72
2022/12/26 04:57:40;;;;;;;68.43;20.88;;;;;;;5.32;100.00;100237.53;5005713;28;20021;-71
2022/12/26 05:00:06;;;;;;;65.82;20.42;;;;;;;5.36;100.00;100238.91;5005121;28;20038;-72
2022/12/26 05:10:43;;;;;;;81.65;19.13;;;;;;;5.36;100.00;100257.44;5007743;28;20403;-74
2022/12/26 05:13:08;;;;;;;66.33;18.07;;;;;;;5.38;100.00;100258.97;4972649;28;20026;-73
2022/12/26 05:28:40;;;;;;;48.63;15.50;;;;;;;5.41;100.00;100268.47;5008918;28;20045;-74
2022/12/26 05:29:24;;;;;;;47.13;14.27;;;;;;;5.56;100.00;100260.91;4991543;28;20057;-73
2022/12/26 05:31:49;;;;;;;45.88;15.32;;;;;;;5.49;100.00;100257.97;5008393;28;20109;-74
2022/12/26 05:34:19;;;;;;;52.27;16.17;;;;;;;5.51;100.00;100261.31;4975586;28;20132;-74
2022/12/26 05:36:57;;;;;;;49.90;17.52;;;;;;;5.50;100.00;100264.94;4995719;28;20109;-73
2022/12/26 05:39:22;;;;;;;63.55;18.85;;;;;;;5.54;100.00;100263.69;4991788;28;20034;-74
2022/12/26 05:41:47;;;;;;;61.93;18.50;;;;;;;5.56;100.00;100264.38;4990268;28;20077;-74
2022/12/26 05:44:13;;;;;;;59.97;17.73;;;;;;;5.56;100.00;100263.56;4991471;28;20068;-74
2022/12/26 05:46:39;;;;;;;66.88;19.05;;;;;;;5.54;100.00;100261.03;4988808;28;20647;-74
2022/12/26 05:49:05;;;;;;;92.77;18.77;;;;;;;5.53;100.00;100261.19;5008907;28;20258;-74
2022/12/26 05:51:31;;;;;;;84.57;22.73;;;;;;;5.55;100.00;100265.38;4990918;28;20034;-72
2022/12/26 05:53:57;;;;;;;62.33;17.80;;;;;;;5.58;100.00;100265.06;4996241;28;20083;-74
2022/12/26 05:56:23;;;;;;;88.80;21.23;;;;;;;5.61;100.00;100263.97;5008638;28;20502;-74
2022/12/26 05:58:54;;;;;;;57.28;16.83;;;;;;;5.59;100.00;100252.66;5008579;28;20471;-74
2022/12/26 06:01:20;;;;;;;64.72;18.85;;;;;;;5.63;100.00;100268.13;5008173;28;20065;-74
2022/12/26 06:03:46;;;;;;;;;;;;;;;5.65;100.00;100274.13;5008855;28;20038;-72
2022/12/26 06:06:12;;;;;;;85.97;18.55;;;;;;;5.63;100.00;100270.78;5007235;28;19913;-73
2022/12/26 06:08:39;;;;;;;71.10;18.48;;;;;;;5.62;100.00;100276.19;4990947;28;20060;-74
2022/12/26 06:11:07;;;;;;;65.55;21.08;;;;;;;5.71;100.00;100284.16;5008053;28;20088;-74
2022/12/26 06:13:35;;;;;;;81.63;21.08;;;;;;;5.62;100.00;100271.78;5008553;28;20144;-72
2022/12/26 06:16:05;;;;;;;73.93;17.38;;;;;;;5.70;100.00;100279.00;5007968;28;20497;-73
2022/12/26 06:18:31;;;;;;;110.35;20.67;;;;;;;5.65;100.00;100270.66;5007774;28;20041;-71
2022/12/26 06:20:57;;;;;;;82.50;21.25;;;;;;;5.70;100.00;100284.28;5008082;28;20434;-74
2022/12/26 06:23:22;;;;;;;93.35;19.98;;;;;;;5.68;100.00;100275.66;5008339;28;20372;-74
2022/12/26 06:25:55;;;;;;;107.43;23.27;;;;;;;5.71;100.00;100292.09;5007794;28;20038;-74
2022/12/26 06:28:21;;;;;;;103.70;21.42;;;;;;;5.75;100.00;100295.28;5008016;28;20034;-72
2022/12/26 06:30:47;;;;;;;115.65;24.00;;;;;;;5.73;100.00;100289.28;5007678;28;20410;-74
2022/12/26 06:33:12;;;;;;;72.47;18.10;;;;;;;5.72;100.00;100291.13;5008235;28;20034;-73
2022/12/26 06:35:38;;;;;;;103.07;21.40;;;;;;;5.74;100.00;100276.91;4993173;28;20042;-74
2022/12/26 06:38:03;;;;;;;102.23;19.27;;;;;;;5.74;100.00;100282.22;4991754;28;20033;-74
2022/12/26 06:40:29;;;;;;;102.22;23.20;;;;;;;5.76;100.00;100283.72;4983996;28;20095;-73
2022/12/26 06:42:54;;;;;;;109.53;23.20;;;;;;;5.74;100.00;100285.69;4989906;28;20030;-74
2022/12/26 06:45:19;;;;;;;88.10;19.10;;;;;;;5.79;100.00;100288.75;5008240;28;21271;-74
2022/12/26 06:47:45;;;;;;;83.57;20.50;;;;;;;5.75;100.00;100291.81;4990374;28;20506;-72
2022/12/26 06:50:10;;;;;;;89.32;20.50;;;;;;;5.81;100.00;100302.69;5007103;28;20521;-72
2022/12/26 06:52:36;;;;;;;106.97;21.20;;;;;;;5.80;100.00;100302.81;4990402;28;20570;-74
2022/12/26 06:55:01;;;;;;;60.33;17.87;;;;;;;5.82;100.00;100301.69;4989999;28;20121;-74
2022/12/26 06:57:26;;;;;;;153.97;27.97;;;;;;;5.76;100.00;100296.97;5008040;28;20053;-72
2022/12/26 06:59:52;;;;;;;110.00;21.97;;;;;;;5.81;100.00;100296.56;5007594;28;20116;-74
2022/12/26 07:02:17;;;;;;;66.67;16.73;;;;;;;5.83;100.00;100313.13;5007664;28;20025;-73
2022/12/26 07:04:42;;;;;;;85.23;20.80;;;;;;;5.86;100.00;100310.19;4990174;28;20041;-73
2022/12/26 07:07:08;;;;;;;85.57;19.67;;;;;;;5.80;100.00;100306.28;5007637;28;20061;-73
2022/12/26 07:09:33;;;;;;;70.03;18.17;;;;;;;5.78;100.00;100307.41;5007343;28;20088;-74
2022/12/26 07:11:58;;;;;;;70.23;19.00;;;;;;;5.81;100.00;100313.28;5007260;28;20057;-75
2022/12/26 07:14:24;;;;;;;51.43;15.27;;;;;;;5.86;100.00;100310.19;4990036;28;20025;-75
2022/12/26 07:16:49;;;;;;;50.70;14.67;;;;;;;5.96;100.00;100316.34;5007251;28;20029;-74
2022/12/26 07:19:14;;;;;;;50.00;15.60;;;;;;;5.95;100.00;100319.13;5007637;28;20046;-75
2022/12/26 07:21:40;;;;;;;49.53;14.30;;;;;;;5.93;100.00;100303.34;5006032;28;20041;-73
2022/12/26 07:24:07;;;;;;;37.80;13.05;;;;;;;5.96;100.00;100312.84;5006093;28;20323;-75
2022/12/26 07:26:33;;;;;;;39.88;13.75;;;;;;;5.93;100.00;100308.66;5006696;28;20494;-75
2022/12/26 07:28:58;;;;;;;30.97;11.67;;;;;;;5.97;100.00;100311.88;5006508;28;20113;-76
2022/12/26 07:31:26;;;;;;;36.75;12.13;;;;;;;6.00;100.00;100317.72;4997106;28;20061;-75
2022/12/26 07:33:54;;;;;;;33.28;11.65;;;;;;;6.01;100.00;100332.63;4956783;28;20034;-75
2022/12/26 07:36:20;;;;;;;37.95;13.05;;;;;;;6.04;100.00;100340.31;5005482;28;20075;-76
2022/12/26 07:38:45;;;;;;;;;;;;;;;6.03;100.00;100333.34;4996638;28;20399;-74
2022/12/26 07:43:55;;;;;;;31.98;12.75;;;;;;;6.03;100.00;100340.47;5005202;28;20042;-73
2022/12/26 07:46:21;;;;;;;47.23;13.57;;;;;;;6.04;100.00;100344.75;5006439;28;20495;-75
2022/12/26 07:48:47;;;;;;;33.38;12.07;;;;;;;6.08;100.00;100346.97;4972870;28;20579;-74
2022/12/26 07:51:12;;;;;;;30.10;12.10;;;;;;;6.09;100.00;100343.38;5006337;28;20120;-74
2022/12/26 07:53:38;;;;;;;32.22;12.60;;;;;;;6.08;100.00;100340.84;5005412;28;20030;-76
2022/12/26 07:56:03;;;;;;;32.65;12.45;;;;;;;6.08;100.00;100341.69;5005128;28;20040;-76
2022/12/26 07:58:29;;;;;;;35.72;14.43;;;;;;;6.13;100.00;100339.47;5006511;28;20033;-75
2022/12/26 08:00:54;;;;;;;35.77;12.80;;;;;;;6.15;100.00;100336.66;4987820;28;20033;-73
2022/12/26 08:03:20;;;;;;;37.53;13.77;;;;;;;6.19;100.00;100338.03;4991123;28;20044;-74
2022/12/26 08:05:46;;;;;;;35.57;13.73;;;;;;;6.19;100.00;100332.75;4988932;28;20033;-73
2022/12/26 08:08:12;;;;;;;45.50;15.73;;;;;;;6.24;100.00;100338.44;4987390;28;20041;-76
2022/12/26 08:10:37;;;;;;;32.80;13.68;;;;;;;6.23;100.00;100328.00;4971441;28;20042;-76
2022/12/26 08:13:03;;;;;;;35.73;14.20;;;;;;;6.23;100.00;100330.66;4996013;28;20038;-75
2022/12/26 08:15:28;;;;;;;44.83;15.77;;;;;;;6.38;100.00;100331.84;5004685;28;20499;-76
2022/12/26 08:17:53;;;;;;;38.17;15.80;;;;;;;6.26;100.00;100335.66;5003891;28;20041;-76
2022/12/26 08:20:19;;;;;;;38.30;15.67;;;;;;;6.25;100.00;100332.19;5005124;28;20033;-74
2022/12/26 08:22:44;;;;;;;39.30;15.63;;;;;;;6.26;100.00;100327.69;4994384;28;20033;-76
2022/12/26 08:25:10;;;;;;;50.47;17.50;;;;;;;6.29;100.00;100328.22;5004877;28;20096;-76
2022/12/26 08:27:35;;;;;;;46.75;16.85;;;;;;;6.29;100.00;100322.94;5004859;28;20088;-72
2022/12/26 08:30:01;;;;;;;40.65;18.40;;;;;;;6.26;100.00;100309.97;4987663;28;20045;-74
2022/12/26 08:32:26;;;;;;;40.17;16.30;;;;;;;6.30;100.00;100316.66;5004773;28;20065;-75
2022/12/26 08:34:52;;;;;;;40.85;17.15;;;;;;;6.34;100.00;100315.41;5004819;28;20057;-76
2022/12/26 08:37:17;;;;;;;49.33;17.77;;;;;;;6.39;100.00;100317.63;4987389;28;20513;-73
2022/12/26 08:39:42;;;;;;;40.13;17.23;;;;;;;6.40;100.00;100310.50;5003653;28;20452;-76
2022/12/26 08:42:08;;;;;;;48.50;19.20;;;;;;;6.37;100.00;100313.41;4988931;28;20042;-76
2022/12/26 08:44:33;;;;;;;43.23;19.13;;;;;;;6.39;100.00;100311.44;5004479;28;20088;-73
2022/12/26 08:46:58;;;;;;;49.93;17.90;;;;;;;6.41;100.00;100315.63;4987001;28;20038;-74
2022/12/26 08:49:24;;;;;;;47.50;18.70;;;;;;;6.46;100.00;100309.88;5004150;28;20137;-74
2022/12/26 08:51:49;;;;;;;45.10;17.43;;;;;;;6.49;100.00;100314.91;4951284;28;1032022;-75
2022/12/26 08:54:14;;;;;;;42.43;18.70;;;;;;;6.49;100.00;100312.25;4977636;28;20046;-74
2022/12/26 08:56:40;;;;;;;43.87;17.80;;;;;;;6.51;100.00;100305.81;5004818;28;20491;-72
2022/12/26 08:59:05;;;;;;;50.70;18.80;;;;;;;6.44;100.00;100304.75;4988072;28;20375;-74
2022/12/26 09:01:31;;;;;;;48.57;20.20;;;;;;;6.52;100.00;100301.34;5004946;28;20736;-75
2022/12/26 09:03:59;;;;;;;42.03;18.07;;;;;;;6.52;100.00;100298.69;4979926;28;20073;-74
2022/12/26 09:06:25;;;;;;;47.33;19.13;;;;;;;6.53;100.00;100293.25;4987799;28;20083;-75
2022/12/26 09:08:51;;;;;;;45.28;17.80;;;;;;;6.55;100.00;100304.56;4995591;28;20113;-73
2022/12/26 09:11:20;;;;;;;48.40;18.67;;;;;;;6.58;100.00;100302.56;5000991;28;20034;-74
2022/12/26 09:13:45;;;;;;;52.22;19.92;;;;;;;6.57;100.00;100301.75;4998728;28;20046;-72
2022/12/26 09:16:17;;;;;;;47.35;19.23;;;;;;;6.63;100.00;100303.00;4987529;28;20041;-75
2022/12/26 09:18:44;;;;;;;49.17;18.63;;;;;;;6.64;100.00;100291.38;5003019;28;20025;-74
2022/12/26 09:21:11;;;;;;;46.08;18.60;;;;;;;6.66;100.00;100292.06;5004501;28;20034;-75
2022/12/26 09:23:37;;;;;;;45.63;20.60;;;;;;;6.66;100.00;100303.50;4987386;28;20057;-74
2022/12/26 09:26:08;;;;;;;43.95;20.42;;;;;;;6.67;100.00;100291.06;4987360;28;20073;-75
2022/12/26 09:28:34;;;;;;;41.53;19.45;;;;;;;6.76;100.00;100280.41;4997620;28;20486;-74
2022/12/26 09:31:01;;;;;;;46.72;19.38;;;;;;;6.75;100.00;100280.56;5004564;28;20087;-75
2022/12/26 09:33:26;;;;;;;41.30;19.50;;;;;;;6.79;100.00;100281.09;4987032;28;20045;-74
2022/12/26 09:35:52;;;;;;;36.50;16.80;;;;;;;6.81;100.00;100276.47;5004516;28;20132;-74
2022/12/26 09:38:17;;;;;;;40.47;18.30;;;;;;;6.78;100.00;100269.66;4996999;28;20026;-74
2022/12/26 09:40:55;;;;;;;37.57;17.47;;;;;;;6.85;100.00;100275.19;4970990;28;20033;-72
2022/12/26 09:43:49;;;;;;;44.67;20.45;;;;;;;6.83;100.00;100267.38;5004628;28;20058;-73
2022/12/26 09:46:31;;;;;;;41.92;19.77;;;;;;;6.87;100.00;100265.28;4993531;28;20879;-73
2022/12/26 09:49:05;;;;;;;45.00;19.23;;;;;;;6.89;100.00;100260.66;4983124;28;20034;-75
2022/12/26 09:51:33;;;;;;;44.05;18.52;;;;;;;6.90;100.00;100262.31;5008092;28;20041;-72
2022/12/26 09:54:02;;;;;;;39.53;18.33;;;;;;;6.92;100.00;100265.66;5003831;28;20030;-75
2022/12/26 09:56:30;;;;;;;47.05;20.20;;;;;;;6.93;100.00;100264.66;5007100;28;20042;-74
2022/12/26 09:59:00;;;;;;;39.05;19.02;;;;;;;7.00;100.00;100260.44;5008298;28;20032;-74
2022/12/26 10:01:29;;;;;;;37.35;18.77;;;;;;;7.02;100.00;100270.88;4990188;28;20068;-71
2022/12/26 10:03:56;;;;;;;40.15;18.45;;;;;;;7.10;100.00;100263.00;5008182;28;20132;-74
2022/12/26 10:06:24;;;;;;;35.50;17.83;;;;;;;7.09;100.00;100248.06;4998545;28;20038;-73
2022/12/26 10:09:22;;;;;;;39.72;20.38;;;;;;;7.10;100.00;100239.13;4990413;28;20030;-72
2022/12/26 10:11:54;;;;;;;35.42;17.45;;;;;;;7.08;100.00;100233.13;4979111;28;20429;-74
2022/12/26 10:14:34;;;;;;;32.28;17.60;;;;;;;7.09;100.00;100227.66;4972108;28;20176;-75
2022/12/26 10:17:10;;;;;;;33.00;17.75;;;;;;;7.12;100.00;100230.00;5002591;28;20084;-74
2022/12/26 10:19:50;;;;;;;37.40;18.73;;;;;;;7.10;100.00;100221.38;5006378;28;20045;-73
2022/12/26 10:22:47;;;;;;;33.33;16.00;;;;;;;7.19;100.00;100212.47;4977991;28;20073;-73
2022/12/26 10:25:21;;;;;;;30.98;17.90;;;;;;;7.29;100.00;100219.53;4990176;28;20479;-75
2022/12/26 10:27:48;;;;;;;30.02;15.55;;;;;;;7.26;100.00;100210.06;4990223;28;20034;-74
2022/12/26 10:30:22;;;;;;;33.30;17.33;;;;;;;7.31;100.00;100204.28;5007734;28;20615;-74
2022/12/26 10:32:52;;;;;;;36.60;17.27;;;;;;;7.38;100.00;100197.34;5007807;28;20494;-74
2022/12/26 10:35:40;;;;;;;29.52;16.48;;;;;;;7.36;100.00;100188.72;5006511;28;20041;-74
2022/12/26 10:38:34;;;;;;;27.80;14.77;;;;;;;7.32;100.00;100171.41;4996232;28;20774;-74
2022/12/26 10:41:08;;;;;;;31.52;17.50;;;;;;;7.40;100.00;100159.03;5002859;28;20702;-72
2022/12/26 10:43:34;;;;;;;29.10;15.43;;;;;;;7.45;100.00;100155.91;4990016;28;20069;-74
2022/12/26 10:46:05;;;;;;;31.17;16.20;;;;;;;7.54;100.00;100154.97;4989898;28;20888;-72
2022/12/26 10:48:31;;;;;;;32.05;16.02;;;;;;;7.65;100.00;100147.72;4973538;28;20066;-71
2022/12/26 10:50:57;;;;;;;27.45;16.02;;;;;;;7.54;100.00;100133.72;4987262;28;20487;-73
2022/12/26 10:53:22;;;;;;;29.10;14.40;;;;;;;7.46;100.00;100123.03;5006182;28;20065;-74
2022/12/26 10:55:48;;;;;;;25.77;14.63;;;;;;;7.61;100.00;100129.44;5007099;28;20030;-74
2022/12/26 10:58:20;;;;;;;34.43;14.80;;;;;;;7.54;100.00;100108.97;5006061;28;20347;-74
2022/12/26 11:00:46;;;;;;;31.23;16.08;;;;;;;7.57;100.00;100106.81;5006821;28;20133;-74
2022/12/26 11:03:17;;;;;;;26.73;14.85;;;;;;;7.58;100.00;100107.66;4989918;28;20120;-74
2022/12/26 11:05:46;;;;;;;28.13;14.48;;;;;;;7.47;100.00;100090.19;5004826;28;20434;-74
2022/12/26 11:08:22;;;;;;;31.85;14.80;;;;;;;7.50;100.00;100104.97;5007552;28;20771;-74
2022/12/26 11:11:02;;;;;;;36.83;16.58;;;;;;;7.55;100.00;100108.81;4988593;28;20034;-73
2022/12/26 11:13:31;;;;;;;25.10;13.77;;;;;;;7.53;100.00;100100.16;4989427;28;20057;-73
2022/12/26 11:15:56;;;;;;;28.30;14.70;;;;;;;7.59;100.00;100117.31;4997533;28;20061;-73
2022/12/26 11:18:26;;;;;;;33.20;16.40;;;;;;;7.61;100.00;100108.19;5007074;28;20034;-73
2022/12/26 11:20:52;;;;;;;32.55;16.42;;;;;;;7.63;100.00;100110.66;5006644;28;20057;-73
2022/12/26 11:23:27;;;;;;;29.20;15.27;;;;;;;7.64;100.00;100111.50;4989497;28;20064;-73
2022/12/26 11:25:58;;;;;;;29.17;15.18;;;;;;;7.59;100.00;100112.81;5005327;28;20804;-73
2022/12/26 11:28:31;;;;;;;30.60;15.80;;;;;;;7.65;100.00;100119.31;4989012;28;20034;-73
2022/12/26 11:30:57;;;;;;;31.63;16.77;;;;;;;7.50;100.00;100108.44;5002786;28;20080;-73
2022/12/26 11:33:26;;;;;;;27.20;15.70;;;;;;;7.54;100.00;100101.84;5006946;28;20061;-73
2022/12/26 11:36:06;;;;;;;27.00;14.88;;;;;;;7.60;100.00;100103.84;4993627;28;20029;-73
2022/12/26 11:38:43;;;;;;;26.55;15.63;;;;;;;7.53;100.00;100108.13;4988968;28;20624;-73
2022/12/26 11:41:40;;;;;;;27.27;14.73;;;;;;;7.53;100.00;100086.88;4988910;28;20034;-73
2022/12/26 11:44:28;;;;;;;30.63;16.77;;;;;;;7.55;100.00;100082.25;4998407;28;20521;-73
2022/12/26 11:46:58;;;;;;;25.05;14.90;;;;;;;7.61;100.00;100084.28;5006069;28;20033;-73
2022/12/26 11:49:46;;;;;;;29.90;14.77;;;;;;;7.67;100.00;100090.75;4988623;28;20037;-73
2022/12/26 11:52:29;;;;;;;26.02;13.82;;;;;;;7.79;100.00;100086.00;5005578;28;20033;-73
2022/12/26 11:54:55;;;;;;;27.60;15.10;;;;;;;7.73;100.00;100078.69;5004683;28;20419;-72
2022/12/26 11:57:26;;;;;;;27.73;14.90;;;;;;;7.68;100.00;100075.66;4988675;28;20028;-73
2022/12/26 11:59:52;;;;;;;25.15;13.25;;;;;;;7.67;100.00;100076.66;5006197;28;20292;-73
2022/12/26 12:02:29;;;;;;;25.88;14.85;;;;;;;7.61;100.00;100071.00;4991798;28;20487;-73
2022/12/26 12:04:59;;;;;;;27.00;14.40;;;;;;;7.62;100.00;100061.19;4988324;28;20030;-73
2022/12/26 12:07:37;;;;;;;26.65;14.48;;;;;;;7.75;100.00;100066.03;5006102;28;20041;-72
2022/12/26 12:10:30;;;;;;;28.90;14.55;;;;;;;7.74;100.00;100057.25;5006107;28;20032;-72
2022/12/26 12:13:16;;;;;;;34.08;13.50;;;;;;;7.68;100.00;100060.56;5005814;28;20033;-72
2022/12/26 12:15:51;;;;;;;25.10;14.05;;;;;;;7.64;100.00;100059.22;4994631;28;20026;-73
2022/12/26 12:18:47;;;;;;;23.03;13.67;;;;;;;7.65;100.00;100050.22;5006696;28;20720;-73
2022/12/26 12:21:31;;;;;;;28.20;13.73;;;;;;;7.60;100.00;100048.06;5002831;28;20289;-73
2022/12/26 12:24:04;;;;;;;29.02;15.80;;;;;;;7.58;100.00;100046.56;4986868;28;20034;-73
2022/12/26 12:26:41;;;;;;;30.05;15.65;;;;;;;7.56;100.00;100044.06;4988561;28;20488;-73
2022/12/26 12:29:22;;;;;;;31.45;15.60;;;;;;;7.60;100.00;100053.38;5006009;28;20098;-73
2022/12/26 12:32:00;;;;;;;28.42;15.15;;;;;;;7.58;100.00;100050.03;5005380;28;20482;-73
2022/12/26 12:34:44;;;;;;;24.17;15.50;;;;;;;7.52;100.00;100047.22;5005766;28;20079;-73
2022/12/26 12:37:19;;;;;;;30.27;14.88;;;;;;;7.53;100.00;100057.66;4999620;28;20034;-73
2022/12/26 12:40:12;;;;;;;39.25;15.90;;;;;;;7.49;100.00;100050.16;5004421;28;20041;-74
2022/12/26 12:42:58;;;;;;;33.15;16.90;;;;;;;7.42;100.00;100060.59;5002954;28;20487;-73
2022/12/26 12:45:30;;;;;;;33.50;16.98;;;;;;;7.44;100.00;100077.19;5005500;28;20073;-73
2022/12/26 12:48:16;;;;;;;31.08;16.40;;;;;;;7.42;100.00;100078.34;4988193;28;20030;-73
2022/12/26 12:51:03;;;;;;;33.30;17.25;;;;;;;7.35;100.00;100083.47;4989517;28;20049;-73
2022/12/26 12:54:13;;;;;;;35.83;18.08;;;;;;;7.40;100.00;100094.47;4996384;28;20030;-73
2022/12/26 12:57:09;;;;;;;33.05;15.63;;;;;;;7.30;100.00;100096.38;4987702;28;20078;-73
2022/12/26 13:00:02;;;;;;;29.25;16.52;;;;;;;7.38;100.00;100101.75;4991072;28;20466;-73
2022/12/26 13:02:34;;;;;;;30.25;15.52;;;;;;;7.42;100.00;100089.81;5004986;28;20081;-73
2022/12/26 13:05:54;;;;;;;24.45;12.95;;;;;;;7.40;100.00;100091.81;4988012;28;20038;-73
2022/12/26 13:08:29;;;;;;;23.23;12.25;;;;;;;7.43;100.00;100098.63;4999569;28;20042;-73
2022/12/26 13:11:04;;;;;;;24.33;13.20;;;;;;;7.44;100.00;100102.94;5005210;28;20041;-73
2022/12/26 13:13:46;;;;;;;15.30;9.07;;;;;;;7.44;100.00;100097.63;4991860;28;20348;-73
2022/12/26 13:16:14;;;;;;;18.70;9.23;;;;;;;7.48;100.00;100075.91;5005221;28;20084;-73
2022/12/26 13:19:05;;;;;;;16.83;8.68;;;;;;;7.50;100.00;100065.13;4997171;28;20026;-73
2022/12/26 13:21:36;;;;;;;14.30;8.00;;;;;;;7.52;100.00;100063.16;4985014;28;20053;-73
2022/12/26 13:24:22;;;;;;;13.23;7.88;;;;;;;7.52;100.00;100055.19;5005226;28;20545;-73
2022/12/26 13:27:17;;;;;;;16.25;7.30;;;;;;;7.45;100.00;100049.66;5006498;28;20045;-73
2022/12/26 13:29:44;;;;;;;15.00;7.32;;;;;;;7.42;100.00;100038.50;4964362;28;20131;-73
2022/12/26 13:32:21;;;;;;;11.48;7.15;;;;;;;7.36;100.00;100051.44;4985023;28;20029;-73